地図

経路データ

SID SEASON NUMBER BASIN SUBBASIN NAME ISO_TIME NATURE LAT LON WMO_WIND WMO_PRES WMO_AGENCY TRACK_TYPE DIST2LAND LANDFALL IFLAG USA_AGENCY USA_ATCF_ID USA_LAT USA_LON USA_RECORD USA_STATUS USA_WIND USA_PRES USA_SSHS USA_R34_NE USA_R34_SE USA_R34_SW USA_R34_NW USA_R50_NE USA_R50_SE USA_R50_SW USA_R50_NW USA_R64_NE USA_R64_SE USA_R64_SW USA_R64_NW USA_POCI USA_ROCI USA_RMW USA_EYE TOKYO_LAT TOKYO_LON TOKYO_GRADE TOKYO_WIND TOKYO_PRES TOKYO_R50_DIR TOKYO_R50_LONG TOKYO_R50_SHORT TOKYO_R30_DIR TOKYO_R30_LONG TOKYO_R30_SHORT TOKYO_LAND CMA_LAT CMA_LON CMA_CAT CMA_WIND CMA_PRES HKO_LAT HKO_LON HKO_CAT HKO_WIND HKO_PRES NEWDELHI_LAT NEWDELHI_LON NEWDELHI_GRADE NEWDELHI_WIND NEWDELHI_PRES NEWDELHI_CI NEWDELHI_DP NEWDELHI_POCI REUNION_LAT REUNION_LON REUNION_TYPE REUNION_WIND REUNION_PRES REUNION_TNUM REUNION_CI REUNION_RMW REUNION_R34_NE REUNION_R34_SE REUNION_R34_SW REUNION_R34_NW REUNION_R50_NE REUNION_R50_SE REUNION_R50_SW REUNION_R50_NW REUNION_R64_NE REUNION_R64_SE REUNION_R64_SW REUNION_R64_NW BOM_LAT BOM_LON BOM_TYPE BOM_WIND BOM_PRES BOM_TNUM BOM_CI BOM_RMW BOM_R34_NE BOM_R34_SE BOM_R34_SW BOM_R34_NW BOM_R50_NE BOM_R50_SE BOM_R50_SW BOM_R50_NW BOM_R64_NE BOM_R64_SE BOM_R64_SW BOM_R64_NW BOM_ROCI BOM_POCI BOM_EYE BOM_POS_METHOD BOM_PRES_METHOD NADI_LAT NADI_LON NADI_CAT NADI_WIND NADI_PRES WELLINGTON_LAT WELLINGTON_LON WELLINGTON_WIND WELLINGTON_PRES DS824_LAT DS824_LON DS824_STAGE DS824_WIND DS824_PRES TD9636_LAT TD9636_LON TD9636_STAGE TD9636_WIND TD9636_PRES TD9635_LAT TD9635_LON TD9635_WIND TD9635_PRES TD9635_ROCI NEUMANN_LAT NEUMANN_LON NEUMANN_CLASS NEUMANN_WIND NEUMANN_PRES MLC_LAT MLC_LON MLC_CLASS MLC_WIND MLC_PRES USA_GUST BOM_GUST BOM_GUST_PER REUNION_GUST REUNION_GUST_PER USA_SEAHGT USA_SEARAD_NE USA_SEARAD_SE USA_SEARAD_SW USA_SEARAD_NW STORM_SPEED STORM_DIR
1924166N18091 1924 13 NI BB NOT_NAMED 1924-06-14 00:00:00 TS 18.3000 90.6000 main 313 306 _________O____ -1 18.3000 90.6000 TC 34 2 11
1924166N18091 1924 13 NI BB NOT_NAMED 1924-06-14 03:00:00 TS 18.4100 90.6266 main 306 290 _________PO___ -1 18.4650 90.6400 TC 36 18.3000 90.6000 2 2 20
1924166N18091 1924 13 NI BB NOT_NAMED 1924-06-14 06:00:00 TS 18.5237 90.6850 main 290 275 _________OP___ -1 18.6000 90.7000 TC 39 18.4094 90.6625 2 2 31
1924166N18091 1924 13 NI BB NOT_NAMED 1924-06-14 09:00:00 TS 18.6207 90.7657 main 275 267 _________PP___ -1 18.6925 90.7925 TC 42 18.5250 90.7300 2 3 38
1924166N18091 1924 13 NI BB NOT_NAMED 1924-06-14 12:00:00 TS 18.7266 90.8538 main 260 245 _________OP___ -1 18.8000 90.9000 TC 45 18.6531 90.8075 2 3 32
1924166N18091 1924 13 NI BB NOT_NAMED 1924-06-14 15:00:00 TS 18.8925 90.9463 main 245 222 _________PO___ -1 18.9850 90.9925 TC 45 18.8000 90.9000 3 4 28
1924166N18091 1924 13 NI BB NOT_NAMED 1924-06-14 18:00:00 TS 19.0852 91.0553 main 214 192 _________OP___ -1 19.2000 91.1000 TC 45 18.9703 91.0106 3 5 31
1924166N18091 1924 13 NI BB NOT_NAMED 1924-06-14 21:00:00 TS 19.2775 91.1888 main 192 171 _________PP___ -1 19.3925 91.2425 TC 45 19.1625 91.1350 3 5 33
1924166N18091 1924 13 NI BB NOT_NAMED 1924-06-15 00:00:00 TS 19.4867 91.3335 main 171 142 _________OP___ -1 19.6000 91.4000 TC 45 19.3735 91.2669 3 5 32
1924166N18091 1924 13 NI BB NOT_NAMED 1924-06-15 03:00:00 TS 19.7213 91.4788 main 142 114 _________PO___ -1 19.8425 91.5575 TC 45 19.6000 91.4000 3 5 29
1924166N18091 1924 13 NI BB NOT_NAMED 1924-06-15 06:00:00 TS 19.9637 91.6146 main 114 91 _________OP___ -1 20.1000 91.7000 TC 45 19.8275 91.5291 3 5 26
1924166N18091 1924 13 NI BB NOT_NAMED 1924-06-15 09:00:00 TS 20.2062 91.7326 main 91 70 _________PP___ -1 20.3425 91.8076 TC 45 20.0700 91.6576 3 5 23
1924166N18091 1924 13 NI BB NOT_NAMED 1924-06-15 12:00:00 TS 20.4638 91.8411 main 66 47 _________OP___ -1 20.6000 91.9000 TC 45 20.3275 91.7823 3 6 21
1924166N18091 1924 13 NI BB NOT_NAMED 1924-06-15 15:00:00 TS 20.7463 91.9500 main 38 15 _________PO___ -1 20.8925 92.0000 TC 45 20.6000 91.9000 3 6 20
1924166N18091 1924 13 NI BB NOT_NAMED 1924-06-15 18:00:00 TS 21.0489 92.0677 main 15 0 _________OP___ -1 21.2000 92.1000 TC 45 20.8978 92.0353 3 7 20
1924166N18091 1924 13 NI BB NOT_NAMED 1924-06-15 21:00:00 TS 21.3575 92.1910 main 0 0 _________PP___ -1 21.5075 92.2224 TC 45 21.2075 92.1595 3 6 18
1924166N18091 1924 13 NI BB NOT_NAMED 1924-06-16 00:00:00 TS 21.6567 92.2770 main 0 0 _________OP___ -1 21.8000 92.3000 TC 45 21.5134 92.2540 3 6 9
1924166N18091 1924 13 NI BB NOT_NAMED 1924-06-16 03:00:00 TS 21.9325 92.2901 main 0 0 _________PO___ -1 22.0650 92.2801 TC 45 21.8000 92.3000 3 5 0
1924166N18091 1924 13 NI BB NOT_NAMED 1924-06-16 06:00:00 TS 22.1773 92.2479 main 0 0 _________OP___ -1 22.3000 92.2000 TC 45 22.0546 92.2958 3 5 348
1924166N18091 1924 13 NI BB NOT_NAMED 1924-06-16 09:00:00 TS 22.3974 92.1813 main 0 0 _________PP___ -1 22.5075 92.1224 TC 45 22.2873 92.2402 3 5 339
1924166N18091 1924 13 NI BB NOT_NAMED 1924-06-16 12:00:00 TS 22.6007 92.0697 main 0 0 _________OP___ -1 22.7000 92.0000 TC 45 22.5014 92.1394 3 5 328
1924166N18091 1924 13 NI BB NOT_NAMED 1924-06-16 15:00:00 TS 22.8038 91.9075 main 0 0 _________PO___ -1 22.9075 91.8150 TC 45 22.7000 92.0000 3 5 320
1924166N18091 1924 13 NI BB NOT_NAMED 1924-06-16 18:00:00 TS 22.9778 91.7306 main 0 0 _________OP___ -1 23.1000 91.6000 TC 45 22.8861 91.8286 3 5 315
1924166N18091 1924 13 NI BB NOT_NAMED 1924-06-16 21:00:00 TS 23.1417 91.5377 main 0 0 _________PP___ -1 23.2600 91.3950 TC 45 23.0628 91.6329 3 5 311
1924166N18091 1924 13 NI BB NOT_NAMED 1924-06-17 00:00:00 TS 23.2887 91.3471 main 0 0 _________OP___ -1 23.4000 91.2000 TC 45 23.2331 91.4207 3 4 310
1924166N18091 1924 13 NI BB NOT_NAMED 1924-06-17 03:00:00 NR 23.4000 91.2000 main 0 __________O___ -1 TC 23.4000 91.2000 3 4 309

IBTrACS Databaseについて

本データベースは、米国NOAAが公開する1842年以降の世界の熱帯低気圧のベストトラックデータアーカイブInternational Best Track Archive for Climate Stewardship (IBTrACS)を、ウェブで閲覧しやすい形式に変換したものです。

最終更新日:2021-10-21